createdAt,value
2019-03-17T00:02:09.969Z,9.30
2019-03-17T00:04:38.338Z,9.20
2019-03-17T00:07:06.722Z,9.20
2019-03-17T00:09:35.093Z,9.30
2019-03-17T00:12:03.491Z,9.30
2019-03-17T00:14:31.854Z,9.30
2019-03-17T00:17:00.187Z,9.40
2019-03-17T00:19:28.554Z,9.20
2019-03-17T00:21:56.933Z,9.10
2019-03-17T00:24:25.244Z,9.20
2019-03-17T00:26:53.639Z,9.20
2019-03-17T00:29:21.993Z,9.40
2019-03-17T00:31:50.398Z,9.30
2019-03-17T00:34:19.102Z,9.30
2019-03-17T00:36:47.416Z,9.30
2019-03-17T00:39:15.794Z,9.40
2019-03-17T00:41:44.192Z,9.20
2019-03-17T00:44:12.553Z,9.30
2019-03-17T00:46:40.865Z,9.30
2019-03-17T00:49:09.173Z,9.30
2019-03-17T00:51:37.561Z,9.30
2019-03-17T00:54:05.934Z,9.20
2019-03-17T00:56:34.347Z,9.40
2019-03-17T00:59:02.733Z,9.40
2019-03-17T01:01:31.111Z,9.40
2019-03-17T01:03:59.474Z,9.70
2019-03-17T01:06:27.861Z,9.70
2019-03-17T01:08:56.236Z,10.00
2019-03-17T01:11:24.657Z,10.10
2019-03-17T01:13:53.036Z,10.00
2019-03-17T01:16:21.406Z,9.80
2019-03-17T01:18:49.792Z,10.30
2019-03-17T01:21:18.084Z,10.10
2019-03-17T01:23:46.485Z,10.00
2019-03-17T01:26:14.842Z,9.90
2019-03-17T01:28:43.234Z,9.80
2019-03-17T01:31:11.589Z,9.80
2019-03-17T01:33:39.903Z,9.80
2019-03-17T01:36:08.265Z,9.60
2019-03-17T01:38:36.657Z,9.80
2019-03-17T01:41:05.031Z,9.90
2019-03-17T01:43:33.425Z,9.70
2019-03-17T01:46:01.794Z,9.70
2019-03-17T01:48:30.180Z,9.70
2019-03-17T01:50:58.547Z,9.70
2019-03-17T01:53:26.941Z,9.70
2019-03-17T01:55:55.367Z,9.70
2019-03-17T01:58:23.697Z,9.50
2019-03-17T02:00:51.994Z,9.60
2019-03-17T02:03:20.308Z,9.80
2019-03-17T02:05:48.689Z,9.60
2019-03-17T02:08:17.072Z,9.50
2019-03-17T02:10:45.436Z,9.60
2019-03-17T02:13:13.749Z,9.80
2019-03-17T02:15:42.038Z,9.70
2019-03-17T02:18:10.436Z,9.70
2019-03-17T02:20:38.799Z,9.60
2019-03-17T02:23:07.184Z,9.40
2019-03-17T02:25:35.541Z,9.30
2019-03-17T02:28:03.869Z,9.40
2019-03-17T02:30:32.253Z,9.20
2019-03-17T02:33:00.640Z,9.10
2019-03-17T02:35:38.784Z,9.00
2019-03-17T02:37:59.036Z,8.90
2019-03-17T02:40:27.396Z,9.10
2019-03-17T02:42:55.762Z,9.10
2019-03-17T02:45:24.158Z,9.10
2019-03-17T02:47:52.554Z,8.90
2019-03-17T02:50:20.919Z,8.70
2019-03-17T02:52:49.300Z,8.70
2019-03-17T02:55:17.657Z,9.00
2019-03-17T02:57:46.026Z,8.80
2019-03-17T03:00:18.182Z,8.80
2019-03-17T03:02:44.427Z,9.00
2019-03-17T03:05:12.825Z,9.10
2019-03-17T03:07:41.232Z,9.20
2019-03-17T03:10:09.596Z,9.20
2019-03-17T03:12:37.957Z,9.30
2019-03-17T03:15:08.209Z,9.40
2019-03-17T03:17:36.579Z,9.30
2019-03-17T03:20:09.559Z,9.40
2019-03-17T03:22:37.934Z,9.50
2019-03-17T03:25:10.013Z,9.40
2019-03-17T03:27:38.380Z,9.30
2019-03-17T03:30:10.087Z,9.40
2019-03-17T03:32:38.390Z,9.50
2019-03-17T03:35:08.358Z,9.40
2019-03-17T03:37:36.706Z,9.30
2019-03-17T03:40:12.057Z,9.10
2019-03-17T03:42:40.373Z,9.10
2019-03-17T03:45:12.954Z,9.00
2019-03-17T03:47:41.309Z,9.20
2019-03-17T03:50:10.838Z,9.10
2019-03-17T03:52:39.151Z,9.10
2019-03-17T03:55:08.482Z,9.00
2019-03-17T03:57:36.929Z,8.90
2019-03-17T04:00:15.280Z,8.90
2019-03-17T04:02:43.649Z,8.90
2019-03-17T04:05:12.043Z,9.00
2019-03-17T04:07:40.461Z,9.00
2019-03-17T04:10:09.837Z,9.10
2019-03-17T04:12:38.224Z,9.00
2019-03-17T04:15:08.812Z,8.80
2019-03-17T04:17:37.171Z,8.70
2019-03-17T04:20:08.061Z,8.60
2019-03-17T04:22:36.434Z,8.50
2019-03-17T04:25:06.809Z,8.40
2019-03-17T04:27:35.099Z,8.30
2019-03-17T04:30:03.697Z,8.30
2019-03-17T04:32:32.054Z,8.40
2019-03-17T04:35:00.460Z,8.40
2019-03-17T04:37:28.827Z,8.30
2019-03-17T04:39:57.223Z,8.30
2019-03-17T04:42:25.599Z,8.30
2019-03-17T04:44:53.981Z,8.40
2019-03-17T04:47:22.287Z,8.40
2019-03-17T04:49:50.706Z,8.50
2019-03-17T04:52:19.070Z,8.70
2019-03-17T04:54:47.438Z,9.10
2019-03-17T04:57:15.843Z,8.90
2019-03-17T04:59:44.209Z,8.70
2019-03-17T05:02:13.781Z,8.50
2019-03-17T05:04:42.286Z,8.20
2019-03-17T05:07:10.687Z,8.20
2019-03-17T05:09:39.074Z,8.10
2019-03-17T05:12:07.473Z,8.10
2019-03-17T05:14:35.850Z,7.90
2019-03-17T05:17:04.252Z,7.90
2019-03-17T05:19:32.625Z,8.10
2019-03-17T05:22:01.020Z,8.00
2019-03-17T05:24:29.390Z,8.30
2019-03-17T05:26:57.806Z,8.60
2019-03-17T05:29:26.162Z,8.70
2019-03-17T05:31:54.560Z,8.80
2019-03-17T05:34:22.932Z,8.90
2019-03-17T05:36:51.321Z,8.80
2019-03-17T05:39:19.686Z,9.00
2019-03-17T05:41:48.085Z,8.90
2019-03-17T05:44:16.511Z,8.90
2019-03-17T05:46:44.838Z,8.90
2019-03-17T05:49:13.549Z,9.00
2019-03-17T05:51:42.228Z,9.10
2019-03-17T05:54:10.616Z,9.20
2019-03-17T05:56:39.018Z,9.40
2019-03-17T05:59:07.389Z,9.60
2019-03-17T06:01:35.779Z,9.90
2019-03-17T06:04:04.158Z,10.10
2019-03-17T06:06:32.550Z,10.30
2019-03-17T06:09:00.845Z,10.70
2019-03-17T06:11:29.247Z,11.00
2019-03-17T06:13:57.637Z,11.10
2019-03-17T06:16:26.028Z,11.10
2019-03-17T06:18:54.406Z,11.60
2019-03-17T06:21:22.811Z,12.90
2019-03-17T06:23:51.219Z,14.30
2019-03-17T06:26:19.618Z,14.70
2019-03-17T06:28:47.996Z,15.10
2019-03-17T06:31:16.392Z,15.40
2019-03-17T06:33:44.805Z,14.70
2019-03-17T06:36:13.165Z,15.10
2019-03-17T06:38:41.573Z,15.50
2019-03-17T06:41:09.946Z,15.70
2019-03-17T06:43:38.345Z,16.60
2019-03-17T06:46:06.731Z,16.20
2019-03-17T06:48:35.126Z,15.70
2019-03-17T06:51:03.500Z,15.10
2019-03-17T06:53:31.897Z,15.50
2019-03-17T06:56:00.270Z,15.90
2019-03-17T06:58:28.667Z,17.80
2019-03-17T07:00:57.035Z,19.20
2019-03-17T07:03:25.434Z,20.10
2019-03-17T07:05:53.808Z,20.70
2019-03-17T07:08:22.213Z,20.80
2019-03-17T07:10:50.605Z,20.50
2019-03-17T07:13:18.936Z,21.60
2019-03-17T07:15:47.312Z,21.90
2019-03-17T07:18:15.711Z,22.40
2019-03-17T07:20:44.086Z,22.00
2019-03-17T07:23:12.494Z,23.10
2019-03-17T07:25:40.873Z,25.30
2019-03-17T07:28:09.262Z,24.90
2019-03-17T07:30:37.634Z,24.40
2019-03-17T07:33:06.048Z,27.10
2019-03-17T07:35:34.423Z,24.80
2019-03-17T07:38:02.817Z,25.20
2019-03-17T07:40:31.186Z,25.90
2019-03-17T07:42:59.593Z,24.00
2019-03-17T07:45:27.988Z,25.00
2019-03-17T07:47:56.390Z,24.80
2019-03-17T07:50:24.766Z,26.70
2019-03-17T07:52:53.229Z,26.60
2019-03-17T07:55:21.622Z,25.00
2019-03-17T07:57:50.035Z,24.30
2019-03-17T08:00:30.890Z,22.30
2019-03-17T08:02:48.462Z,22.10
2019-03-17T08:05:16.841Z,21.60
2019-03-17T08:07:45.242Z,23.30
2019-03-17T08:10:14.366Z,24.80
2019-03-17T08:12:42.762Z,26.50
2019-03-17T08:15:13.239Z,26.50
2019-03-17T08:17:41.648Z,25.00
2019-03-17T08:20:11.057Z,25.70
2019-03-17T08:22:39.467Z,24.10
2019-03-17T08:25:11.607Z,24.90
2019-03-17T08:27:40.463Z,24.20
2019-03-17T08:30:17.850Z,23.40
2019-03-17T08:32:46.254Z,24.70
2019-03-17T08:35:14.641Z,25.20
2019-03-17T08:37:43.059Z,25.20
2019-03-17T08:40:15.639Z,26.30
2019-03-17T08:42:44.045Z,26.00
2019-03-17T08:45:13.252Z,24.60
2019-03-17T08:47:41.653Z,25.60
2019-03-17T08:50:12.332Z,23.70
2019-03-17T08:52:40.741Z,25.10
2019-03-17T08:55:10.057Z,24.80
2019-03-17T08:57:38.431Z,25.40
2019-03-17T09:00:20.406Z,24.90
2019-03-17T09:02:48.804Z,24.10
2019-03-17T09:05:17.204Z,23.40
2019-03-17T09:07:45.573Z,24.20
2019-03-17T09:10:15.013Z,25.80
2019-03-17T09:12:43.418Z,26.50
2019-03-17T09:15:11.794Z,23.50
2019-03-17T09:17:40.166Z,22.60
2019-03-17T09:20:15.307Z,24.00
2019-03-17T09:22:43.683Z,24.20
2019-03-17T09:25:12.176Z,24.70
2019-03-17T09:27:40.558Z,23.30
2019-03-17T09:30:15.114Z,23.30
2019-03-17T09:32:43.484Z,22.30
2019-03-17T09:35:11.916Z,21.60
2019-03-17T09:37:40.283Z,23.10
2019-03-17T09:40:18.337Z,23.60
2019-03-17T09:42:46.710Z,22.50
2019-03-17T09:45:15.656Z,21.80
2019-03-17T09:47:44.064Z,22.00
2019-03-17T09:50:20.119Z,22.70
2019-03-17T09:52:48.520Z,22.00
2019-03-17T09:55:16.919Z,22.30
2019-03-17T09:57:45.305Z,22.30
2019-03-17T10:00:21.643Z,23.60
2019-03-17T10:02:50.006Z,24.70
2019-03-17T10:05:18.396Z,24.40
2019-03-17T10:07:46.764Z,24.30
2019-03-17T10:10:17.677Z,23.60
2019-03-17T10:12:46.055Z,23.00
2019-03-17T10:15:16.845Z,21.80
2019-03-17T10:17:45.215Z,19.70
2019-03-17T10:20:15.910Z,19.40
2019-03-17T10:22:44.678Z,19.00
2019-03-17T10:25:13.418Z,18.30
2019-03-17T10:27:41.804Z,17.90
2019-03-17T10:30:13.481Z,17.90
2019-03-17T10:32:41.870Z,17.70
2019-03-17T10:35:10.299Z,17.70
2019-03-17T10:37:38.713Z,17.40
2019-03-17T10:40:18.133Z,17.20
2019-03-17T10:42:46.513Z,17.30
2019-03-17T10:45:15.122Z,17.30
2019-03-17T10:47:43.470Z,17.60
2019-03-17T10:50:21.913Z,17.10
2019-03-17T10:52:50.300Z,16.80
2019-03-17T10:55:18.702Z,17.20
2019-03-17T10:57:47.082Z,16.80
2019-03-17T11:00:16.720Z,16.90
2019-03-17T11:02:45.116Z,17.60
2019-03-17T11:05:13.566Z,18.50
2019-03-17T11:07:41.952Z,19.00
2019-03-17T11:10:11.687Z,19.90
2019-03-17T11:12:40.053Z,20.30
2019-03-17T11:15:17.455Z,19.20
2019-03-17T11:17:45.826Z,18.50
2019-03-17T11:20:14.398Z,18.00
2019-03-17T11:22:42.820Z,18.40
2019-03-17T11:25:12.651Z,18.30
2019-03-17T11:27:41.029Z,17.80
2019-03-17T11:30:16.154Z,17.20
2019-03-17T11:32:44.522Z,17.00
2019-03-17T11:35:12.917Z,17.10
2019-03-17T11:37:41.289Z,16.90
2019-03-17T11:40:12.596Z,16.50
2019-03-17T11:42:40.972Z,16.50
2019-03-17T11:45:14.095Z,16.70
2019-03-17T11:47:42.532Z,16.70
2019-03-17T11:50:20.366Z,16.50
2019-03-17T11:52:48.794Z,16.40
2019-03-17T11:55:17.242Z,16.50
2019-03-17T11:57:45.679Z,16.60
2019-03-17T12:00:18.263Z,17.00
2019-03-17T12:02:46.669Z,17.00
2019-03-17T12:05:15.052Z,16.80
2019-03-17T12:07:43.445Z,16.80
2019-03-17T12:10:18.814Z,16.40
2019-03-17T12:12:47.240Z,16.40
2019-03-17T12:15:19.647Z,16.30
2019-03-17T12:17:48.054Z,16.20
2019-03-17T12:20:16.431Z,16.30
2019-03-17T12:22:44.842Z,16.20
2019-03-17T12:25:17.007Z,16.20
2019-03-17T12:27:45.405Z,16.00
2019-03-17T12:30:21.829Z,15.80
2019-03-17T12:32:50.990Z,15.60
2019-03-17T12:35:19.359Z,15.60
2019-03-17T12:37:47.787Z,15.40
2019-03-17T12:40:16.339Z,15.20
2019-03-17T12:42:44.749Z,15.10
2019-03-17T12:45:13.572Z,14.90
2019-03-17T12:47:41.967Z,14.90
2019-03-17T12:50:15.342Z,14.90
2019-03-17T12:52:43.752Z,15.00
2019-03-17T12:55:12.122Z,15.00
2019-03-17T12:57:40.522Z,14.70
2019-03-17T13:00:14.257Z,14.40
2019-03-17T13:02:42.646Z,14.20
2019-03-17T13:05:11.770Z,13.90
2019-03-17T13:07:40.167Z,13.70
2019-03-17T13:10:15.873Z,13.60
2019-03-17T13:12:41.867Z,13.40
2019-03-17T13:15:11.488Z,13.20
2019-03-17T13:17:39.885Z,13.00
2019-03-17T13:20:15.054Z,12.80
2019-03-17T13:22:43.458Z,12.70
2019-03-17T13:25:12.019Z,12.50
2019-03-17T13:27:40.489Z,12.50
2019-03-17T13:30:13.627Z,12.50
2019-03-17T13:32:42.028Z,12.60
2019-03-17T13:35:11.175Z,12.70
2019-03-17T13:37:39.595Z,12.70
2019-03-17T13:40:28.342Z,12.50
2019-03-17T13:42:46.037Z,12.30
2019-03-17T13:45:14.483Z,12.30
2019-03-17T13:47:42.887Z,12.30
2019-03-17T13:50:15.873Z,12.30
2019-03-17T13:52:43.532Z,12.20
2019-03-17T13:55:11.898Z,12.10
2019-03-17T13:57:42.152Z,11.60
2019-03-17T14:00:16.210Z,11.10
2019-03-17T14:02:44.609Z,10.60
2019-03-17T14:05:12.993Z,10.00
2019-03-17T14:07:41.397Z,9.60
2019-03-17T14:10:15.431Z,9.20
2019-03-17T14:12:44.114Z,8.90
2019-03-17T14:15:14.018Z,8.90
2019-03-17T14:17:42.425Z,8.80
2019-03-17T14:20:20.511Z,8.80
2019-03-17T14:22:48.810Z,8.50
2019-03-17T14:25:22.910Z,8.40
2019-03-17T14:27:51.319Z,7.80
2019-03-17T14:30:19.674Z,7.40
2019-03-17T14:32:48.074Z,7.20
2019-03-17T14:35:16.453Z,6.90
2019-03-17T14:37:44.850Z,6.60
2019-03-17T14:40:14.762Z,6.40
2019-03-17T14:42:44.331Z,6.30
2019-03-17T14:45:14.538Z,6.20
2019-03-17T14:47:42.946Z,6.00
2019-03-17T14:50:18.741Z,5.90
2019-03-17T14:52:47.142Z,5.90
2019-03-17T14:55:15.514Z,5.80
2019-03-17T14:57:43.900Z,5.50
2019-03-17T15:00:18.085Z,5.50
2019-03-17T15:02:46.462Z,5.50
2019-03-17T15:05:14.843Z,5.50
2019-03-17T15:07:43.219Z,5.40
2019-03-17T15:10:22.756Z,5.50
2019-03-17T15:12:51.148Z,5.50
2019-03-17T15:15:20.478Z,5.30
2019-03-17T15:17:48.845Z,5.20
2019-03-17T15:20:19.556Z,5.10
2019-03-17T15:22:47.937Z,5.10
2019-03-17T15:25:16.325Z,5.20
2019-03-17T15:27:44.702Z,5.10
2019-03-17T15:30:28.413Z,5.10
2019-03-17T15:32:56.774Z,5.10
2019-03-17T15:35:25.739Z,5.10
2019-03-17T15:37:54.128Z,5.00
2019-03-17T15:40:22.925Z,5.10
2019-03-17T15:42:51.310Z,5.10
2019-03-17T15:45:21.798Z,5.10
2019-03-17T15:47:50.170Z,5.10
2019-03-17T15:50:22.414Z,5.00
2019-03-17T15:52:50.787Z,5.10
2019-03-17T15:55:19.186Z,5.10
2019-03-17T15:57:47.566Z,5.10
2019-03-17T16:00:25.254Z,5.20
2019-03-17T16:02:50.651Z,5.20
2019-03-17T16:05:19.309Z,5.20
2019-03-17T16:07:47.686Z,5.20
2019-03-17T16:10:27.735Z,5.20
2019-03-17T16:12:56.038Z,5.20
2019-03-17T16:15:24.438Z,5.20
2019-03-17T16:17:52.752Z,5.20
2019-03-17T16:20:24.920Z,5.20
2019-03-17T16:22:53.324Z,5.30
2019-03-17T16:25:24.215Z,5.30
2019-03-17T16:27:52.608Z,5.30
2019-03-17T16:30:23.613Z,5.40
2019-03-17T16:32:52.059Z,5.40
2019-03-17T16:35:20.450Z,5.40
2019-03-17T16:37:48.826Z,5.40
2019-03-17T16:40:22.678Z,5.30
2019-03-17T16:42:53.599Z,5.30
2019-03-17T16:45:21.098Z,5.40
2019-03-17T16:47:49.604Z,5.30
2019-03-17T16:50:19.418Z,5.30
2019-03-17T16:52:47.783Z,5.30
2019-03-17T16:55:16.181Z,5.20
2019-03-17T16:57:44.569Z,5.20
2019-03-17T17:00:19.657Z,5.10
2019-03-17T17:02:48.730Z,5.00
2019-03-17T17:05:19.435Z,5.00
2019-03-17T17:07:47.810Z,5.00
2019-03-17T17:10:26.954Z,5.00
2019-03-17T17:12:55.333Z,5.00
2019-03-17T17:15:34.760Z,5.00
2019-03-17T17:18:03.149Z,5.00
2019-03-17T17:20:33.846Z,4.90
2019-03-17T17:23:02.235Z,4.80
2019-03-17T17:25:30.642Z,4.80
2019-03-17T17:27:59.058Z,4.80
2019-03-17T17:30:27.459Z,4.80
2019-03-17T17:32:55.898Z,4.80
2019-03-17T17:35:24.300Z,4.80
2019-03-17T17:37:52.909Z,4.80
2019-03-17T17:40:23.721Z,4.70
2019-03-17T17:42:52.135Z,4.80
2019-03-17T17:45:24.659Z,4.60
2019-03-17T17:47:53.034Z,4.70
2019-03-17T17:50:27.456Z,4.60
2019-03-17T17:52:55.872Z,4.60
2019-03-17T17:55:24.261Z,4.60
2019-03-17T17:57:53.212Z,4.60
2019-03-17T18:00:26.459Z,4.50
2019-03-17T18:02:54.810Z,4.60
2019-03-17T18:05:23.264Z,4.50
2019-03-17T18:07:51.647Z,4.50
2019-03-17T18:10:20.056Z,4.40
2019-03-17T18:12:48.430Z,4.40
2019-03-17T18:15:25.597Z,4.40
2019-03-17T18:17:54.257Z,4.40
2019-03-17T18:20:22.624Z,4.40
2019-03-17T18:22:51.035Z,4.30
2019-03-17T18:25:20.838Z,4.30
2019-03-17T18:27:49.240Z,4.30
2019-03-17T18:30:20.878Z,4.30
2019-03-17T18:32:49.273Z,4.30
2019-03-17T18:35:17.675Z,4.30
2019-03-17T18:37:46.096Z,4.30
2019-03-17T18:40:15.661Z,4.30
2019-03-17T18:42:44.055Z,4.30
2019-03-17T18:45:18.214Z,4.30
2019-03-17T18:47:46.602Z,4.30
2019-03-17T18:50:20.174Z,4.40
2019-03-17T18:52:45.195Z,4.30
2019-03-17T18:55:14.706Z,4.30
2019-03-17T18:57:43.115Z,4.30
2019-03-17T19:00:17.561Z,4.30
2019-03-17T19:02:45.946Z,4.30
2019-03-17T19:05:15.160Z,4.20
2019-03-17T19:07:43.549Z,4.30
2019-03-17T19:10:14.389Z,4.20
2019-03-17T19:12:45.837Z,4.30
2019-03-17T19:15:20.986Z,4.20
2019-03-17T19:17:49.382Z,4.20
2019-03-17T19:20:24.396Z,4.20
2019-03-17T19:22:52.791Z,4.10
2019-03-17T19:25:23.471Z,4.10
2019-03-17T19:27:51.874Z,4.10
2019-03-17T19:30:22.243Z,4.00
2019-03-17T19:32:50.629Z,4.00
2019-03-17T19:35:19.006Z,4.00
2019-03-17T19:37:47.414Z,4.00
2019-03-17T19:40:19.627Z,4.00
2019-03-17T19:42:58.212Z,4.00
2019-03-17T19:45:18.031Z,4.00
2019-03-17T19:47:46.434Z,3.90
2019-03-17T19:50:19.693Z,3.90
2019-03-17T19:52:48.082Z,3.90
2019-03-17T19:55:16.396Z,3.90
2019-03-17T19:57:44.777Z,3.90
2019-03-17T20:00:19.992Z,3.90
2019-03-17T20:02:48.398Z,3.90
2019-03-17T20:05:16.769Z,3.90
2019-03-17T20:07:45.241Z,3.90
2019-03-17T20:10:19.765Z,3.90
2019-03-17T20:12:48.148Z,3.90
2019-03-17T20:15:16.544Z,3.90
2019-03-17T20:17:44.935Z,3.90
2019-03-17T20:20:14.423Z,4.00
2019-03-17T20:22:42.899Z,3.90
2019-03-17T20:25:11.262Z,3.90
2019-03-17T20:27:39.667Z,3.90
2019-03-17T20:30:13.129Z,3.80
2019-03-17T20:32:41.519Z,3.80
2019-03-17T20:35:11.523Z,3.80
2019-03-17T20:37:39.911Z,3.80
2019-03-17T20:40:12.732Z,3.80
2019-03-17T20:42:41.444Z,3.70
2019-03-17T20:45:11.149Z,3.70
2019-03-17T20:47:39.555Z,3.70
2019-03-17T20:50:13.876Z,3.70
2019-03-17T20:52:42.271Z,3.70
2019-03-17T20:55:12.315Z,3.70
2019-03-17T20:57:40.711Z,3.70
2019-03-17T21:00:14.947Z,3.70
2019-03-17T21:02:43.336Z,3.70
2019-03-17T21:05:12.180Z,3.60
2019-03-17T21:07:41.019Z,3.70
2019-03-17T21:10:14.222Z,3.70
2019-03-17T21:12:42.613Z,3.70
2019-03-17T21:15:18.636Z,3.80
2019-03-17T21:17:47.049Z,3.80
2019-03-17T21:20:20.538Z,3.80
2019-03-17T21:22:48.940Z,3.80
2019-03-17T21:25:17.312Z,3.80
2019-03-17T21:27:46.050Z,3.80
2019-03-17T21:30:28.466Z,3.80
2019-03-17T21:32:56.866Z,3.80
2019-03-17T21:35:25.259Z,3.80
2019-03-17T21:37:53.647Z,3.80
2019-03-17T21:40:22.060Z,3.80
2019-03-17T21:42:50.445Z,3.80
2019-03-17T21:45:18.819Z,3.80
2019-03-17T21:47:47.200Z,3.80
2019-03-17T21:50:20.263Z,3.70
2019-03-17T21:52:48.646Z,3.70
2019-03-17T21:55:17.048Z,3.80
2019-03-17T21:57:45.520Z,3.80
2019-03-17T22:00:17.915Z,3.70
2019-03-17T22:02:46.295Z,3.70
2019-03-17T22:05:14.791Z,3.70
2019-03-17T22:07:49.571Z,3.60
2019-03-17T22:10:15.490Z,3.50
2019-03-17T22:12:43.857Z,3.40
2019-03-17T22:15:14.549Z,3.40
2019-03-17T22:17:42.922Z,3.40
2019-03-17T22:20:14.978Z,3.40
2019-03-17T22:22:43.418Z,3.40
2019-03-17T22:25:12.856Z,3.30
2019-03-17T22:27:42.351Z,3.30
2019-03-17T22:30:18.183Z,3.30
2019-03-17T22:32:46.546Z,3.30
2019-03-17T22:35:14.947Z,3.20
2019-03-17T22:37:43.316Z,3.10
2019-03-17T22:40:16.423Z,3.20
2019-03-17T22:42:44.788Z,3.20
2019-03-17T22:45:14.020Z,3.10
2019-03-17T22:47:42.402Z,3.20
2019-03-17T22:50:17.154Z,3.20
2019-03-17T22:52:45.455Z,3.20
2019-03-17T22:55:13.851Z,3.20
2019-03-17T22:57:43.210Z,3.30
2019-03-17T23:00:35.198Z,3.30
2019-03-17T23:03:03.651Z,3.30
2019-03-17T23:05:32.051Z,3.30
2019-03-17T23:08:00.422Z,3.40
2019-03-17T23:10:28.810Z,3.30
2019-03-17T23:12:57.181Z,3.30
2019-03-17T23:15:25.593Z,3.30
2019-03-17T23:17:53.961Z,3.30
2019-03-17T23:20:22.357Z,3.30
2019-03-17T23:22:50.725Z,3.30
2019-03-17T23:25:19.122Z,3.30
2019-03-17T23:27:47.492Z,3.30
2019-03-17T23:30:18.103Z,3.30
2019-03-17T23:32:48.964Z,3.30
2019-03-17T23:35:16.524Z,3.20
2019-03-17T23:37:44.890Z,3.10
2019-03-17T23:40:14.834Z,3.10
2019-03-17T23:42:43.208Z,3.10
2019-03-17T23:45:12.150Z,3.10
2019-03-17T23:47:40.523Z,3.10
2019-03-17T23:50:13.345Z,3.00
2019-03-17T23:52:41.721Z,2.90
2019-03-17T23:55:13.692Z,3.00
2019-03-17T23:57:42.091Z,2.90
